Wetterdaten: Woche 03.09.07 - 09.09.07 (KW36)
Datum Zeit Temperatur Luftfeuchte Luftdruck Niederschlag
03.09.2007 00:00 14,7 C 73 % 0 hPa 0,0 l/m
03.09.2007 01:00 14,2 C 78 % 0 hPa 0,0 l/m
03.09.2007 02:00 13,8 C 81 % 0 hPa 0,0 l/m
03.09.2007 03:00 13,9 C 78 % 0 hPa 0,0 l/m
03.09.2007 04:00 13,7 C 75 % 0 hPa 0,0 l/m
03.09.2007 05:00 13,5 C 78 % 0 hPa 0,0 l/m
03.09.2007 06:00 13,7 C 77 % 0 hPa 0,0 l/m
03.09.2007 07:00 13,9 C 77 % 0 hPa 0,0 l/m
03.09.2007 08:00 14,3 C 77 % 0 hPa 0,0 l/m
03.09.2007 09:00 15,6 C 67 % 0 hPa 0,0 l/m
03.09.2007 10:00 17,4 C 58 % 0 hPa 0,0 l/m
03.09.2007 11:00 18,1 C 51 % 0 hPa 0,0 l/m
03.09.2007 12:00 17,2 C 53 % 0 hPa 0,0 l/m
03.09.2007 13:00 16,7 C 59 % 0 hPa 0,0 l/m
03.09.2007 14:00 16,1 C 62 % 0 hPa 0,0 l/m
03.09.2007 15:00 14,7 C 73 % 0 hPa 0,0 l/m
03.09.2007 16:00 13,6 C 82 % 0 hPa 4,0 l/m
03.09.2007 17:00 13,0 C 88 % 0 hPa 2,0 l/m
03.09.2007 18:00 12,7 C 90 % 0 hPa 3,0 l/m
03.09.2007 19:00 11,3 C 87 % 0 hPa 2,0 l/m
03.09.2007 20:00 10,9 C 89 % 0 hPa 2,0 l/m
03.09.2007 21:00 10,7 C 91 % 0 hPa 1,0 l/m
03.09.2007 22:00 10,5 C 93 % 0 hPa 0,0 l/m
03.09.2007 23:00 10,2 C 93 % 0 hPa 0,0 l/m
04.09.2007 00:00 10,0 C 93 % 0 hPa 0,0 l/m
04.09.2007 01:00 9,8 C 94 % 0 hPa 0,0 l/m
04.09.2007 02:00 9,7 C 94 % 0 hPa 1,0 l/m
04.09.2007 03:00 9,4 C 94 % 0 hPa 1,0 l/m
04.09.2007 04:00 9,1 C 94 % 0 hPa 0,0 l/m
04.09.2007 05:00 9,1 C 95 % 0 hPa 0,0 l/m
04.09.2007 06:00 9,0 C 95 % 0 hPa 0,0 l/m
04.09.2007 07:00 8,7 C 95 % 0 hPa 0,0 l/m
04.09.2007 08:00 8,7 C 95 % 0 hPa 0,0 l/m
04.09.2007 09:00 9,8 C 94 % 0 hPa 0,0 l/m
04.09.2007 10:00 10,6 C 81 % 0 hPa 0,0 l/m
04.09.2007 11:00 11,8 C 64 % 0 hPa 0,0 l/m
04.09.2007 12:00 11,8 C 54 % 0 hPa 0,0 l/m
04.09.2007 13:00 12,4 C 47 % 0 hPa 0,0 l/m
04.09.2007 14:00 13,5 C 40 % 0 hPa 0,0 l/m
04.09.2007 15:00 13,4 C 41 % 0 hPa 0,0 l/m
04.09.2007 16:00 12,5 C 44 % 0 hPa 0,0 l/m
04.09.2007 17:00 11,4 C 47 % 0 hPa 0,0 l/m
04.09.2007 18:00 8,6 C 69 % 0 hPa 1,0 l/m
04.09.2007 19:00 8,0 C 77 % 0 hPa 0,0 l/m
04.09.2007 20:00 7,3 C 82 % 0 hPa 0,0 l/m
04.09.2007 21:00 7,3 C 85 % 0 hPa 0,0 l/m
04.09.2007 22:00 7,5 C 86 % 0 hPa 0,0 l/m
04.09.2007 23:00 7,3 C 87 % 0 hPa 0,0 l/m
05.09.2007 00:00 6,3 C 87 % 0 hPa 0,0 l/m
05.09.2007 01:00 5,4 C 88 % 0 hPa 0,0 l/m
05.09.2007 02:00 5,9 C 91 % 0 hPa 0,0 l/m
05.09.2007 03:00 5,8 C 91 % 0 hPa 0,0 l/m
05.09.2007 04:00 5,2 C 91 % 0 hPa 0,0 l/m
05.09.2007 05:00 5,6 C 92 % 0 hPa 0,0 l/m
05.09.2007 06:00 6,4 C 92 % 0 hPa 0,0 l/m
05.09.2007 07:00 6,8 C 91 % 0 hPa 0,0 l/m
05.09.2007 08:00 7,5 C 88 % 0 hPa 0,0 l/m
05.09.2007 09:00 8,5 C 79 % 0 hPa 0,0 l/m
05.09.2007 10:00 9,6 C 68 % 0 hPa 0,0 l/m
05.09.2007 11:00 10,1 C 62 % 0 hPa 0,0 l/m
05.09.2007 12:00 10,8 C 57 % 0 hPa 0,0 l/m
05.09.2007 13:00 11,8 C 52 % 0 hPa 0,0 l/m
05.09.2007 14:00 11,6 C 52 % 0 hPa 0,0 l/m
05.09.2007 15:00 10,8 C 63 % 0 hPa 0,0 l/m
05.09.2007 16:00 10,6 C 69 % 0 hPa 0,0 l/m
05.09.2007 17:00 10,9 C 66 % 0 hPa 0,0 l/m
05.09.2007 18:00 11,8 C 58 % 0 hPa 0,0 l/m
05.09.2007 19:00 10,2 C 67 % 0 hPa 0,0 l/m
05.09.2007 20:00 9,4 C 75 % 319 hPa 0,0 l/m
05.09.2007 21:00 8,7 C 79 % 1028 hPa 0,0 l/m
05.09.2007 22:00 7,7 C 82 % 1028 hPa 0,0 l/m
05.09.2007 23:00 6,3 C 84 % 1028 hPa 0,0 l/m
06.09.2007 00:00 5,4 C 86 % 1028 hPa 0,0 l/m
06.09.2007 01:00 4,8 C 88 % 1028 hPa 0,0 l/m
06.09.2007 02:00 4,5 C 90 % 1028 hPa 0,0 l/m
06.09.2007 03:00 4,0 C 91 % 1027 hPa 0,0 l/m
06.09.2007 04:00 3,7 C 93 % 1027 hPa 0,0 l/m
06.09.2007 05:00 3,3 C 93 % 1027 hPa 0,0 l/m
06.09.2007 06:00 2,7 C 94 % 1027 hPa 0,0 l/m
06.09.2007 07:00 2,3 C 95 % 1027 hPa 0,0 l/m
06.09.2007 08:00 2,9 C 96 % 1027 hPa 0,0 l/m
06.09.2007 09:00 4,8 C 97 % 1027 hPa 0,0 l/m
06.09.2007 10:00 7,3 C 97 % 1027 hPa 0,0 l/m
06.09.2007 11:00 10,9 C 94 % 1027 hPa 0,0 l/m
06.09.2007 12:00 12,8 C 66 % 1027 hPa 0,0 l/m
06.09.2007 13:00 14,2 C 51 % 1026 hPa 0,0 l/m
06.09.2007 14:00 14,2 C 45 % 1026 hPa 0,0 l/m
06.09.2007 15:00 13,8 C 49 % 1026 hPa 0,0 l/m
06.09.2007 16:00 13,7 C 52 % 1026 hPa 0,0 l/m
06.09.2007 17:00 12,6 C 66 % 1026 hPa 0,0 l/m
06.09.2007 18:00 11,7 C 74 % 1026 hPa 1,0 l/m
06.09.2007 19:00 11,2 C 82 % 1026 hPa 0,0 l/m
06.09.2007 20:00 10,8 C 86 % 1026 hPa 2,0 l/m
06.09.2007 21:00 10,7 C 90 % 1027 hPa 0,0 l/m
06.09.2007 22:00 10,7 C 92 % 1026 hPa 0,0 l/m
06.09.2007 23:00 10,8 C 93 % 1026 hPa 0,0 l/m
07.09.2007 00:00 9,9 C 94 % 1026 hPa 0,0 l/m
07.09.2007 01:00 9,3 C 94 % 1026 hPa 0,0 l/m
07.09.2007 02:00 9,4 C 95 % 1026 hPa 0,0 l/m
07.09.2007 03:00 9,3 C 96 % 1026 hPa 0,0 l/m
07.09.2007 04:00 9,2 C 96 % 1026 hPa 0,0 l/m
07.09.2007 05:00 8,8 C 97 % 1026 hPa 0,0 l/m
07.09.2007 06:00 8,7 C 97 % 1026 hPa 0,0 l/m
07.09.2007 07:00 8,7 C 97 % 1026 hPa 0,0 l/m
07.09.2007 08:00 9,4 C 98 % 1026 hPa 0,0 l/m
07.09.2007 09:00 10,5 C 98 % 1027 hPa 0,0 l/m
07.09.2007 10:00 11,8 C 97 % 1027 hPa 0,0 l/m
07.09.2007 11:00 12,8 C 88 % 1027 hPa 0,0 l/m
07.09.2007 12:00 14,0 C 69 % 1026 hPa 0,0 l/m
07.09.2007 13:00 15,3 C 54 % 1026 hPa 0,0 l/m
07.09.2007 14:00 15,5 C 51 % 1026 hPa 0,0 l/m
07.09.2007 15:00 15,5 C 53 % 1026 hPa 0,0 l/m
07.09.2007 16:00 14,6 C 59 % 1026 hPa 0,0 l/m
07.09.2007 17:00 14,1 C 66 % 1026 hPa 0,0 l/m
07.09.2007 18:00 13,9 C 68 % 1026 hPa 0,0 l/m
07.09.2007 19:00 13,3 C 73 % 1026 hPa 0,0 l/m
07.09.2007 20:00 13,0 C 76 % 1027 hPa 0,0 l/m
07.09.2007 21:00 12,6 C 78 % 1027 hPa 0,0 l/m
07.09.2007 22:00 12,3 C 80 % 1027 hPa 0,0 l/m
07.09.2007 23:00 12,0 C 83 % 1027 hPa 0,0 l/m
08.09.2007 00:00 12,0 C 84 % 1027 hPa 0,0 l/m
08.09.2007 01:00 11,8 C 85 % 1027 hPa 0,0 l/m
08.09.2007 02:00 11,6 C 87 % 1027 hPa 0,0 l/m
08.09.2007 03:00 11,3 C 89 % 1026 hPa 0,0 l/m
08.09.2007 04:00 10,4 C 89 % 1026 hPa 0,0 l/m
08.09.2007 05:00 9,8 C 91 % 1026 hPa 0,0 l/m
08.09.2007 06:00 10,3 C 93 % 1026 hPa 0,0 l/m
08.09.2007 07:00 10,2 C 94 % 1026 hPa 0,0 l/m
08.09.2007 08:00 10,5 C 95 % 1026 hPa 0,0 l/m
08.09.2007 09:00 11,6 C 96 % 1026 hPa 0,0 l/m
08.09.2007 10:00 13,6 C 92 % 1026 hPa 0,0 l/m
08.09.2007 11:00 14,7 C 74 % 1025 hPa 0,0 l/m
08.09.2007 12:00 15,3 C 62 % 1025 hPa 0,0 l/m
08.09.2007 13:00 15,9 C 57 % 1025 hPa 0,0 l/m
08.09.2007 14:00 16,4 C 53 % 1025 hPa 0,0 l/m
08.09.2007 15:00 16,7 C 50 % 1024 hPa 0,0 l/m
08.09.2007 16:00 16,5 C 52 % 1024 hPa 0,0 l/m
08.09.2007 17:00 16,3 C 54 % 1023 hPa 0,0 l/m
08.09.2007 18:00 15,8 C 57 % 1023 hPa 0,0 l/m
08.09.2007 19:00 14,9 C 68 % 1023 hPa 0,0 l/m
08.09.2007 20:00 14,2 C 71 % 1023 hPa 0,0 l/m
08.09.2007 21:00 13,9 C 71 % 1023 hPa 0,0 l/m
08.09.2007 22:00 13,3 C 76 % 1023 hPa 0,0 l/m
08.09.2007 23:00 12,8 C 81 % 1023 hPa 0,0 l/m
09.09.2007 00:00 12,5 C 83 % 1023 hPa 0,0 l/m
09.09.2007 01:00 12,2 C 84 % 1023 hPa 0,0 l/m
09.09.2007 02:00 11,7 C 86 % 1022 hPa 0,0 l/m
09.09.2007 03:00 11,4 C 88 % 1022 hPa 0,0 l/m
09.09.2007 04:00 11,5 C 90 % 1021 hPa 0,0 l/m
09.09.2007 05:00 11,5 C 91 % 1021 hPa 0,0 l/m
09.09.2007 06:00 11,5 C 92 % 1021 hPa 0,0 l/m
09.09.2007 07:00 11,5 C 93 % 1021 hPa 0,0 l/m
09.09.2007 08:00 12,0 C 93 % 1021 hPa 0,0 l/m
09.09.2007 09:00 13,3 C 91 % 1021 hPa 0,0 l/m
09.09.2007 10:00 14,4 C 80 % 1021 hPa 0,0 l/m
09.09.2007 11:00 15,5 C 68 % 1021 hPa 0,0 l/m
09.09.2007 12:00 16,1 C 61 % 1021 hPa 0,0 l/m
09.09.2007 13:00 15,1 C 67 % 1021 hPa 0,0 l/m
09.09.2007 14:00 16,2 C 62 % 1021 hPa 0,0 l/m
09.09.2007 15:00 16,7 C 55 % 1020 hPa 0,0 l/m
09.09.2007 16:00 16,8 C 52 % 1020 hPa 0,0 l/m
09.09.2007 17:00 16,5 C 49 % 1020 hPa 0,0 l/m
09.09.2007 18:00 15,9 C 52 % 1020 hPa 0,0 l/m
09.09.2007 19:00 14,7 C 58 % 1021 hPa 0,0 l/m
09.09.2007 20:00 12,7 C 68 % 1021 hPa 0,0 l/m
09.09.2007 21:00 11,2 C 74 % 1022 hPa 0,0 l/m
09.09.2007 22:00 10,5 C 78 % 1022 hPa 0,0 l/m
09.09.2007 23:00 9,6 C 82 % 1022 hPa 0,0 l/m
Min-Datum _ 06.09.07 04.09.07 03.09.07 -
_ Min-Zeit 07:19 15:25 00:00 -
Minimum _ 2,3 C 37 % 0 hPa -
Max-Datum _ 03.09.07 06.09.07 05.09.07 03.09.07
_ Max-Zeit 11:21 10:58 20:41 16:07
Maximum _ 18,4 C 98 % 1029 hPa 4,0 l/m
Durchschnitt _ 11,3 C 78 % 606 hPa #20,0 l/m

Durchschnitt Minimum Temp.11,0 C
Durchschnitt Maximum Temp.11,7 C